Time;durP1;ratioP1;P1;durP2;ratioP2;P2;SDS_P1;SDS_P2;PMS_P1;PMS_P2;Temp;Humidity;BMP_temperature;BMP_pressure;BME280_temperature;BME280_humidity;BME280_pressure;Samples;Min_cycle;Max_cycle;Signal;HPM_P1;HPM_P2
2022/04/27 05:15:41;;;;;;;12.87;10.70;;;6.80;99.90;;;;;;5127757;27;20563;-74
2022/04/27 05:18:08;;;;;;;15.53;12.03;;;6.80;99.90;;;;;;5094619;28;20207;-73
2022/04/27 05:20:38;;;;;;;15.63;12.40;;;6.90;99.90;;;;;;5089186;28;20195;-73
2022/04/27 05:23:04;;;;;;;15.57;13.37;;;7.20;99.90;;;;;;5094376;28;20193;-73
2022/04/27 05:25:30;;;;;;;17.03;13.87;;;7.40;99.90;;;;;;5090869;28;20244;-74
2022/04/27 05:27:55;;;;;;;17.47;13.73;;;7.60;99.90;;;;;;5084722;28;20183;-72
2022/04/27 05:33:16;;;;;;;15.77;13.27;;;8.10;99.90;;;;;;5097194;28;20262;-74
2022/04/27 05:35:43;;;;;;;16.30;12.73;;;8.30;99.90;;;;;;5086970;28;20294;-74
2022/04/27 05:38:11;;;;;;;16.97;13.00;;;8.50;99.90;;;;;;5076606;28;20169;-73
2022/04/27 05:40:39;;;;;;;16.43;13.13;;;8.60;99.90;;;;;;5081761;28;20168;-73
2022/04/27 05:43:08;;;;;;;17.00;13.33;;;8.80;99.90;;;;;;5076975;28;20193;-73
2022/04/27 05:45:34;;;;;;;14.23;12.70;;;8.90;99.90;;;;;;5071590;28;20208;-74
2022/04/27 05:48:05;;;;;;;15.63;12.40;;;9.00;99.90;;;;;;5075079;28;20216;-75
2022/04/27 05:50:34;;;;;;;13.10;11.00;;;9.10;99.90;;;;;;5081976;28;20237;-74
2022/04/27 05:53:00;;;;;;;13.50;11.73;;;9.20;99.90;;;;;;5090185;28;20184;-75
2022/04/27 05:55:25;;;;;;;13.73;12.33;;;9.30;99.90;;;;;;5088177;28;20226;-75
2022/04/27 05:57:54;;;;;;;14.20;12.10;;;9.40;99.90;;;;;;5091289;28;20188;-74
2022/04/27 06:00:23;;;;;;;14.00;11.13;;;9.40;99.90;;;;;;5080320;28;20185;-73
2022/04/27 06:02:51;;;;;;;12.00;10.57;;;9.40;99.90;;;;;;5074211;28;20200;-75
2022/04/27 06:05:16;;;;;;;12.07;10.73;;;9.40;99.90;;;;;;5101236;28;20184;-74
2022/04/27 06:07:42;;;;;;;12.80;10.50;;;9.40;99.90;;;;;;5089234;28;20253;-74
2022/04/27 06:10:11;;;;;;;11.07;9.87;;;9.40;99.90;;;;;;5089599;28;20195;-75
2022/04/27 06:12:46;;;;;;;12.40;10.47;;;9.50;99.90;;;;;;5083721;28;20198;-73
2022/04/27 06:15:15;;;;;;;11.77;10.60;;;9.50;99.90;;;;;;5075634;28;20270;-74
2022/04/27 06:17:41;;;;;;;13.83;11.63;;;9.50;99.90;;;;;;5092937;28;20176;-74
2022/04/27 06:20:10;;;;;;;13.00;10.40;;;9.50;99.90;;;;;;5105616;28;20207;-74
2022/04/27 06:22:35;;;;;;;11.87;10.47;;;9.60;99.90;;;;;;5093476;28;20180;-72
2022/04/27 06:25:03;;;;;;;14.47;11.73;;;9.60;99.90;;;;;;5086538;28;20204;-75
2022/04/27 06:27:29;;;;;;;13.10;11.30;;;9.60;99.90;;;;;;5075631;28;20208;-74
2022/04/27 06:30:00;;;;;;;12.67;11.37;;;9.60;99.90;;;;;;5063072;28;20224;-74
2022/04/27 06:32:31;;;;;;;13.73;11.37;;;9.60;99.90;;;;;;5082003;28;20228;-73
2022/04/27 06:34:59;;;;;;;13.40;11.10;;;9.60;99.90;;;;;;5075463;28;20192;-75
2022/04/27 06:37:27;;;;;;;12.13;10.83;;;9.60;99.90;;;;;;5072293;28;20287;-74
2022/04/27 06:39:56;;;;;;;12.77;10.43;;;9.70;99.90;;;;;;5075486;28;20234;-74
2022/04/27 06:42:25;;;;;;;12.93;11.17;;;9.70;99.90;;;;;;5075962;28;20172;-74
2022/04/27 06:44:52;;;;;;;12.63;10.60;;;9.70;99.90;;;;;;5059711;28;20242;-71
2022/04/27 06:47:18;;;;;;;13.80;12.17;;;9.80;99.90;;;;;;5074934;28;20181;-74
2022/04/27 06:49:44;;;;;;;15.37;11.37;;;9.90;99.90;;;;;;5071392;28;20205;-74
2022/04/27 06:52:11;;;;;;;13.63;11.70;;;10.00;99.90;;;;;;5075267;28;20195;-75
2022/04/27 06:54:37;;;;;;;13.03;11.10;;;10.10;99.90;;;;;;5066492;28;20246;-73
2022/04/27 06:57:08;;;;;;;14.27;11.73;;;10.20;99.90;;;;;;5071134;28;20216;-75
2022/04/27 06:59:38;;;;;;;13.00;11.60;;;10.30;99.90;;;;;;5068410;28;20276;-75
2022/04/27 07:02:09;;;;;;;12.63;11.43;;;10.40;99.90;;;;;;5072938;28;20203;-74
2022/04/27 07:04:38;;;;;;;14.27;11.83;;;10.50;99.90;;;;;;5060059;28;20188;-74
2022/04/27 07:07:04;;;;;;;13.68;11.07;;;10.60;99.90;;;;;;5080586;28;20215;-74
2022/04/27 07:09:33;;;;;;;12.10;10.80;;;10.70;99.90;;;;;;5067768;28;20169;-73
2022/04/27 07:11:59;;;;;;;12.07;10.77;;;10.80;99.90;;;;;;5054854;28;20181;-74
2022/04/27 07:14:27;;;;;;;14.83;10.97;;;10.80;99.90;;;;;;5076277;28;20208;-73
2022/04/27 07:16:55;;;;;;;13.67;10.63;;;10.90;99.90;;;;;;5074749;28;20188;-74
2022/04/27 07:19:21;;;;;;;15.47;11.20;;;10.90;99.90;;;;;;5077611;28;20254;-74
2022/04/27 07:21:46;;;;;;;14.77;12.60;;;11.00;99.90;;;;;;5055817;28;20185;-75
2022/04/27 07:24:14;;;;;;;12.35;10.65;;;11.10;99.90;;;;;;5072198;28;20182;-74
2022/04/27 07:26:40;;;;;;;13.38;11.52;;;11.10;99.90;;;;;;5085014;28;20252;-72
2022/04/27 07:29:08;;;;;;;12.88;11.48;;;11.20;99.90;;;;;;5090833;28;20188;-74
2022/04/27 07:31:36;;;;;;;12.50;10.97;;;11.20;99.90;;;;;;5076980;28;20200;-73
2022/04/27 07:34:06;;;;;;;14.00;12.30;;;11.30;99.90;;;;;;5074810;28;20249;-73
2022/04/27 07:36:34;;;;;;;13.13;11.45;;;11.30;99.90;;;;;;5073898;28;20185;-73
2022/04/27 07:39:03;;;;;;;13.25;11.52;;;11.40;99.90;;;;;;5054934;28;20204;-74
2022/04/27 07:41:29;;;;;;;13.88;12.38;;;11.40;99.90;;;;;;5069013;28;20203;-75
2022/04/27 07:43:54;;;;;;;13.63;12.23;;;11.50;99.90;;;;;;5058118;28;20213;-75
2022/04/27 07:46:22;;;;;;;13.13;11.52;;;11.50;99.90;;;;;;5054134;28;20215;-75
2022/04/27 07:48:55;;;;;;;13.88;12.35;;;11.60;99.90;;;;;;5084772;28;20192;-72
2022/04/27 07:51:26;;;;;;;14.00;12.30;;;11.70;99.90;;;;;;5074828;28;20181;-72
2022/04/27 07:53:51;;;;;;;15.00;12.48;;;11.70;99.90;;;;;;5076784;28;20199;-74
2022/04/27 07:56:17;;;;;;;14.52;12.23;;;11.80;99.90;;;;;;5074003;28;20173;-72
2022/04/27 07:58:45;;;;;;;14.27;12.10;;;11.90;99.90;;;;;;5072428;28;20173;-74
2022/04/27 08:01:10;;;;;;;13.57;12.10;;;11.90;99.90;;;;;;5078140;28;20224;-76
2022/04/27 08:03:37;;;;;;;14.90;12.50;;;12.00;99.90;;;;;;5065159;28;20195;-74
2022/04/27 08:06:04;;;;;;;15.38;12.55;;;12.10;99.90;;;;;;5073598;28;20309;-73
2022/04/27 08:08:33;;;;;;;12.57;11.27;;;12.10;99.90;;;;;;5074269;28;20180;-71
2022/04/27 08:11:01;;;;;;;14.60;12.25;;;12.20;99.90;;;;;;5072992;28;20195;-71
2022/04/27 08:13:29;;;;;;;14.52;11.50;;;12.30;99.90;;;;;;5063645;28;20221;-74
2022/04/27 08:15:55;;;;;;;13.25;11.75;;;12.30;99.90;;;;;;5070054;28;20187;-74
2022/04/27 08:18:20;;;;;;;14.00;12.50;;;12.40;99.90;;;;;;5063511;28;20192;-73
2022/04/27 08:23:34;;;;;;;13.23;11.80;;;12.50;99.90;;;;;;5064725;28;20230;-74
2022/04/27 08:26:04;;;;;;;13.93;12.48;;;12.50;99.90;;;;;;5093769;28;20179;-75
2022/04/27 08:28:37;;;;;;;13.52;11.93;;;12.60;99.90;;;;;;5085309;28;20255;-74
2022/04/27 08:31:02;;;;;;;16.58;12.68;;;12.70;99.90;;;;;;5072725;28;20300;-74
2022/04/27 08:33:31;;;;;;;14.50;13.00;;;12.70;99.90;;;;;;5073358;28;20530;-73
2022/04/27 08:36:03;;;;;;;14.82;12.00;;;12.80;99.90;;;;;;5069628;28;20184;-74
2022/04/27 08:38:33;;;;;;;14.98;12.45;;;12.90;99.90;;;;;;5073165;28;20164;-73
2022/04/27 08:40:59;;;;;;;14.18;12.68;;;13.00;99.90;;;;;;5063639;28;20177;-74
2022/04/27 08:43:26;;;;;;;14.98;12.20;;;13.00;99.90;;;;;;5053800;28;20180;-74
2022/04/27 08:45:53;;;;;;;15.68;13.82;;;13.10;99.90;;;;;;5084278;28;20168;-74
2022/04/27 08:48:21;;;;;;;17.08;12.75;;;13.20;99.90;;;;;;5093050;28;20521;-73
2022/04/27 08:50:48;;;;;;;14.85;13.35;;;13.20;99.90;;;;;;5090369;28;20180;-74
2022/04/27 08:53:13;;;;;;;14.20;12.70;;;13.30;99.90;;;;;;5093508;28;20171;-73
2022/04/27 08:55:40;;;;;;;14.85;13.35;;;13.40;99.90;;;;;;5087949;28;20210;-72
2022/04/27 08:58:11;;;;;;;14.15;12.73;;;13.50;99.90;;;;;;5091792;28;20174;-74
2022/04/27 09:00:40;;;;;;;15.15;13.55;;;13.70;99.90;;;;;;5073290;28;20203;-74
2022/04/27 09:03:31;;;;;;;15.55;13.88;;;13.80;99.90;;;;;;5074019;28;20168;-71
2022/04/27 09:06:03;;;;;;;15.20;13.45;;;13.90;99.90;;;;;;5072823;28;20220;-71
2022/04/27 09:08:43;;;;;;;14.07;12.43;;;14.10;99.90;;;;;;5072747;28;20191;-72
2022/04/27 09:11:19;;;;;;;13.13;11.82;;;14.20;99.90;;;;;;5087222;28;20176;-74
2022/04/27 09:13:52;;;;;;;14.48;12.32;;;14.20;99.90;;;;;;5075865;28;20204;-73
2022/04/27 09:16:21;;;;;;;13.73;12.30;;;14.30;99.90;;;;;;5075228;28;20234;-74
2022/04/27 09:21:54;;;;;;;14.65;13.15;;;14.40;99.90;;;;;;5067213;28;20187;-74
2022/04/27 09:24:20;;;;;;;14.15;12.70;;;14.50;99.90;;;;;;5092893;28;20242;-74
2022/04/27 09:26:57;;;;;;;18.50;14.23;;;14.60;99.90;;;;;;5070126;28;20208;-75
2022/04/27 09:29:29;;;;;;;15.07;13.57;;;14.70;99.90;;;;;;5071107;28;20180;-75
2022/04/27 09:31:56;;;;;;;14.43;12.70;;;14.80;99.90;;;;;;5071780;28;20176;-72
2022/04/27 09:34:28;;;;;;;14.05;12.57;;;14.90;99.90;;;;;;5069126;28;20265;-74
2022/04/27 09:37:01;;;;;;;13.02;11.65;;;15.00;99.90;;;;;;5071618;28;20295;-73
2022/04/27 09:39:27;;;;;;;13.23;11.93;;;15.10;99.90;;;;;;5087978;28;20179;-75
2022/04/27 09:42:05;;;;;;;12.60;11.30;;;15.10;99.90;;;;;;5072364;28;20462;-74
2022/04/27 09:44:40;;;;;;;14.68;12.50;;;15.20;99.90;;;;;;5072243;28;20326;-73
2022/04/27 09:47:07;;;;;;;13.35;12.15;;;15.30;99.90;;;;;;5071778;28;20168;-70
2022/04/27 09:49:41;;;;;;;13.70;12.27;;;15.40;99.90;;;;;;5067670;28;20184;-72
2022/04/27 09:52:07;;;;;;;13.63;11.45;;;15.50;99.90;;;;;;5065862;28;20303;-74
2022/04/27 09:54:40;;;;;;;15.07;13.60;;;15.60;99.90;;;;;;5052749;28;20227;-73
2022/04/27 09:57:09;;;;;;;12.65;11.35;;;15.70;99.90;;;;;;5052474;28;20178;-71
2022/04/27 09:59:39;;;;;;;13.43;12.07;;;15.80;99.90;;;;;;5072508;28;20753;-70
2022/04/27 10:02:09;;;;;;;12.15;11.02;;;15.80;99.90;;;;;;5074639;28;20201;-72
2022/04/27 10:04:36;;;;;;;13.23;11.80;;;15.90;99.90;;;;;;5074642;28;20238;-74
2022/04/27 10:07:13;;;;;;;12.45;11.15;;;15.80;99.90;;;;;;5076497;28;20207;-70
2022/04/27 10:09:40;;;;;;;11.02;9.90;;;15.80;99.90;;;;;;5074568;28;20180;-73
2022/04/27 10:12:11;;;;;;;11.40;10.30;;;15.70;99.90;;;;;;5056413;28;20205;-75
2022/04/27 10:14:37;;;;;;;11.75;10.48;;;15.70;99.90;;;;;;5090192;28;20239;-75
2022/04/27 10:17:04;;;;;;;12.55;10.50;;;15.70;99.90;;;;;;5074082;28;20179;-74
2022/04/27 10:19:29;;;;;;;12.63;11.43;;;15.90;99.90;;;;;;5072533;28;20195;-72
2022/04/27 10:21:59;;;;;;;12.60;11.30;;;16.20;99.90;;;;;;5071866;28;20639;-73
2022/04/27 10:24:34;;;;;;;12.02;10.85;;;16.50;99.90;;;;;;5080555;28;20200;-72
2022/04/27 10:27:18;;;;;;;12.27;11.02;;;17.00;99.90;;;;;;5067263;28;20221;-71
2022/04/27 10:29:51;;;;;;;12.98;11.77;;;17.40;99.90;;;;;;5076454;28;20183;-72
2022/04/27 10:32:41;;;;;;;11.25;10.07;;;17.70;99.90;;;;;;5077205;28;20165;-73
2022/04/27 10:35:17;;;;;;;9.85;8.85;;;17.80;99.90;;;;;;5078033;28;20491;-72
2022/04/27 10:37:47;;;;;;;10.88;9.70;;;17.80;99.90;;;;;;5074224;28;20287;-72
2022/04/27 10:40:35;;;;;;;13.85;10.40;;;17.80;99.90;;;;;;5075140;28;20202;-74
2022/04/27 10:43:15;;;;;;;10.65;9.05;;;17.70;99.90;;;;;;5055144;28;20160;-69
2022/04/27 10:45:43;;;;;;;11.93;9.00;;;17.60;99.90;;;;;;5061972;28;20211;-73
2022/04/27 10:48:16;;;;;;;9.27;8.48;;;17.50;99.90;;;;;;5061522;28;20169;-73
2022/04/27 10:50:56;;;;;;;10.05;8.65;;;17.40;99.90;;;;;;5092082;28;20207;-73
2022/04/27 10:53:24;;;;;;;9.10;8.25;;;17.30;99.90;;;;;;5087138;28;20223;-73
2022/04/27 10:55:56;;;;;;;10.10;9.10;;;17.40;99.90;;;;;;5074788;28;20181;-73
2022/04/27 10:58:29;;;;;;;11.20;10.00;;;17.50;99.90;;;;;;5076516;28;20177;-73
2022/04/27 11:01:01;;;;;;;9.77;8.90;;;17.60;99.90;;;;;;5064075;28;20184;-72
2022/04/27 11:03:38;;;;;;;12.23;9.57;;;17.90;99.90;;;;;;5076904;28;20183;-73
2022/04/27 11:06:05;;;;;;;9.40;8.50;;;18.10;99.90;;;;;;5071240;28;20165;-74
2022/04/27 11:08:52;;;;;;;9.48;8.57;;;18.20;99.90;;;;;;5070809;28;20197;-72
2022/04/27 11:11:21;;;;;;;8.52;7.70;;;18.40;99.90;;;;;;5070712;28;20177;-75
2022/04/27 11:13:48;;;;;;;10.05;8.57;;;18.50;99.90;;;;;;5082993;28;20242;-75
2022/04/27 11:16:13;;;;;;;9.48;8.48;;;18.70;99.90;;;;;;5080433;28;20177;-74
2022/04/27 11:18:53;;;;;;;9.85;8.85;;;18.70;99.90;;;;;;5091009;28;20188;-75
2022/04/27 11:21:19;;;;;;;9.02;8.15;;;18.60;99.90;;;;;;5094416;28;20187;-67
2022/04/27 11:23:46;;;;;;;8.98;8.07;;;18.70;99.90;;;;;;5072948;28;20200;-67
2022/04/27 11:26:14;;;;;;;9.18;8.27;;;18.60;99.90;;;;;;5074005;28;20183;-66
2022/04/27 11:28:43;;;;;;;9.10;8.20;;;18.60;99.90;;;;;;5073074;28;20178;-65
2022/04/27 11:31:09;;;;;;;10.82;9.68;;;18.80;99.90;;;;;;5088932;28;20173;-67
2022/04/27 11:33:41;;;;;;;9.60;8.48;;;19.00;99.90;;;;;;5089771;28;20187;-67
2022/04/27 11:36:22;;;;;;;8.60;7.70;;;19.10;99.90;;;;;;5067111;28;20185;-66
2022/04/27 11:38:50;;;;;;;8.25;7.30;;;19.30;99.90;;;;;;5074166;28;20188;-67
2022/04/27 11:41:21;;;;;;;9.65;7.45;;;19.40;99.90;;;;;;5084566;28;20198;-67
2022/04/27 11:43:58;;;;;;;8.05;7.22;;;19.40;99.90;;;;;;5085991;28;20181;-66
2022/04/27 11:46:38;;;;;;;8.95;8.05;;;19.40;99.90;;;;;;5090654;28;20241;-65
2022/04/27 11:49:10;;;;;;;8.95;7.80;;;19.50;99.90;;;;;;5090604;28;20172;-67
2022/04/27 11:51:36;;;;;;;9.27;7.25;;;19.60;99.90;;;;;;5073482;28;20209;-67
2022/04/27 11:54:02;;;;;;;7.30;6.60;;;19.70;99.90;;;;;;5097260;28;20289;-67
2022/04/27 11:56:35;;;;;;;7.82;7.13;;;19.90;99.90;;;;;;5098162;28;20275;-66
2022/04/27 11:59:08;;;;;;;7.43;6.65;;;20.10;99.90;;;;;;5073452;28;20165;-67
2022/04/27 12:01:33;;;;;;;8.40;7.57;;;20.40;99.90;;;;;;5072303;28;20180;-66
2022/04/27 12:03:59;;;;;;;8.18;7.38;;;20.60;99.90;;;;;;5087872;28;20258;-67
2022/04/27 12:06:28;;;;;;;7.95;7.15;;;20.80;99.90;;;;;;5076293;28;20179;-66
2022/04/27 12:09:00;;;;;;;11.05;6.68;;;20.80;99.90;;;;;;5053161;28;20208;-67
2022/04/27 12:11:28;;;;;;;7.85;5.90;;;20.80;99.90;;;;;;5068191;28;20301;-67
2022/04/27 12:13:58;;;;;;;6.90;6.30;;;20.70;99.90;;;;;;5079028;28;20271;-67
2022/04/27 12:16:30;;;;;;;6.88;6.25;;;20.50;99.90;;;;;;5090238;28;20173;-67
2022/04/27 12:18:59;;;;;;;7.47;6.07;;;20.40;99.90;;;;;;5084917;28;20255;-67
2022/04/27 12:21:24;;;;;;;7.55;6.32;;;20.40;99.90;;;;;;5064231;28;20173;-67
2022/04/27 12:23:51;;;;;;;6.85;6.25;;;20.40;99.90;;;;;;5090892;28;20254;-67
2022/04/27 12:26:18;;;;;;;7.13;6.43;;;20.50;99.90;;;;;;5094453;28;20184;-67
2022/04/27 12:28:46;;;;;;;5.97;5.47;;;20.60;99.90;;;;;;5072930;28;20168;-67
2022/04/27 12:31:16;;;;;;;8.38;6.88;;;20.70;99.90;;;;;;5082037;28;20175;-67
2022/04/27 12:33:56;;;;;;;6.78;6.10;;;20.80;99.90;;;;;;5093650;28;20198;-67
2022/04/27 12:39:23;;;;;;;7.35;6.65;;;21.20;99.90;;;;;;5055740;28;20168;-67
2022/04/27 12:41:50;;;;;;;6.55;5.95;;;21.40;99.90;;;;;;5089610;28;20188;-67
2022/04/27 12:44:25;;;;;;;6.15;5.55;;;21.60;99.90;;;;;;5090295;28;20283;-67
2022/04/27 12:47:13;;;;;;;7.47;6.40;;;21.60;99.90;;;;;;5076025;28;20226;-67
2022/04/27 12:49:45;;;;;;;9.13;6.97;;;21.70;99.90;;;;;;5086051;28;20173;-66
2022/04/27 12:52:30;;;;;;;6.55;5.85;;;21.60;99.90;;;;;;5071928;28;20211;-67
2022/04/27 12:55:10;;;;;;;5.88;5.25;;;21.60;99.90;;;;;;5069335;28;20187;-67
2022/04/27 12:57:45;;;;;;;5.80;4.97;;;21.70;99.90;;;;;;5056934;28;20181;-67
2022/04/27 13:00:12;;;;;;;7.45;5.22;;;21.80;99.90;;;;;;5064916;28;20262;-66
2022/04/27 13:02:38;;;;;;;5.53;5.00;;;22.00;99.90;;;;;;5076779;28;20180;-67
2022/04/27 13:05:08;;;;;;;5.30;4.80;;;22.20;99.90;;;;;;5075079;28;20562;-65
2022/04/27 13:07:34;;;;;;;5.80;5.30;;;22.30;99.90;;;;;;5088934;28;20220;-67
2022/04/27 13:12:43;;;;;;;5.95;5.35;;;22.70;99.90;;;;;;5059166;28;20172;-67
2022/04/27 13:15:10;;;;;;;6.97;5.47;;;22.80;99.90;;;;;;5078141;28;20196;-66
2022/04/27 13:17:43;;;;;;;5.80;5.20;;;22.80;99.90;;;;;;5062829;28;20193;-66
2022/04/27 13:20:09;;;;;;;5.10;4.60;;;22.60;99.90;;;;;;5085344;28;20177;-67
2022/04/27 13:22:36;;;;;;;5.10;4.60;;;22.40;99.90;;;;;;5089285;28;20272;-67
2022/04/27 13:25:04;;;;;;;5.57;5.03;;;22.30;99.90;;;;;;5089190;28;20207;-66
2022/04/27 13:27:30;;;;;;;5.47;4.97;;;22.30;99.90;;;;;;5098125;28;20178;-66
2022/04/27 13:29:56;;;;;;;5.85;5.28;;;22.20;99.90;;;;;;5052544;28;20216;-67
2022/04/27 13:32:24;;;;;;;5.20;4.70;;;22.20;99.90;;;;;;5093062;28;20206;-66
2022/04/27 13:34:52;;;;;;;6.20;5.18;;;22.30;99.90;;;;;;5063324;28;20260;-67
2022/04/27 13:37:18;;;;;;;4.65;4.25;;;22.30;99.90;;;;;;5074530;28;20188;-67
2022/04/27 13:39:44;;;;;;;4.75;4.25;;;22.20;99.90;;;;;;5073759;28;20177;-67
2022/04/27 13:42:11;;;;;;;7.00;5.25;;;22.10;99.90;;;;;;5076172;28;20246;-65
2022/04/27 13:44:37;;;;;;;5.20;4.70;;;22.00;99.90;;;;;;5075670;28;20196;-67
2022/04/27 13:47:03;;;;;;;5.68;4.32;;;21.80;99.90;;;;;;5092952;28;20165;-67
2022/04/27 13:49:31;;;;;;;5.70;5.10;;;21.70;99.90;;;;;;5089046;28;20177;-66
2022/04/27 13:51:57;;;;;;;5.85;5.30;;;21.80;99.90;;;;;;5069083;28;20526;-66
2022/04/27 13:54:23;;;;;;;5.13;4.63;;;21.80;99.90;;;;;;5107107;28;20175;-67
2022/04/27 13:56:51;;;;;;;5.82;4.60;;;22.00;99.90;;;;;;5106828;28;20194;-67
2022/04/27 13:59:17;;;;;;;6.13;5.07;;;22.20;99.90;;;;;;5075818;28;20176;-66
2022/04/27 14:01:44;;;;;;;5.13;4.47;;;22.40;99.90;;;;;;5072181;28;20250;-67
2022/04/27 14:04:11;;;;;;;4.85;4.40;;;22.60;99.90;;;;;;5083830;28;20209;-66
2022/04/27 14:06:37;;;;;;;5.32;4.82;;;22.80;99.90;;;;;;5093987;28;20196;-67
2022/04/27 14:09:03;;;;;;;6.22;4.50;;;23.00;99.90;;;;;;5089319;28;20232;-67
2022/04/27 14:14:18;;;;;;;5.47;4.38;;;23.50;99.90;;;;;;5082898;28;20254;-67
2022/04/27 14:19:33;;;;;;;5.55;5.05;;;23.80;99.90;;;;;;5086631;28;20210;-67
2022/04/27 14:21:58;;;;;;;4.30;3.90;;;23.80;99.90;;;;;;5095280;28;20175;-67
2022/04/27 14:24:24;;;;;;;4.32;3.90;;;23.60;99.90;;;;;;5076720;28;20207;-64
2022/04/27 14:26:49;;;;;;;4.78;3.83;;;23.40;99.90;;;;;;5075167;28;20177;-67
2022/04/27 14:29:15;;;;;;;5.63;5.13;;;23.10;99.90;;;;;;5074986;28;20173;-67
2022/04/27 14:31:45;;;;;;;5.95;5.43;;;22.80;99.90;;;;;;5091340;28;20184;-67
2022/04/27 14:34:16;;;;;;;6.13;5.50;;;22.50;99.90;;;;;;5080503;28;20177;-69
2022/04/27 14:36:41;;;;;;;5.47;4.97;;;22.30;99.90;;;;;;5088670;28;20173;-67
2022/04/27 14:39:07;;;;;;;7.22;6.57;;;22.20;99.90;;;;;;5075316;28;20172;-67
2022/04/27 14:41:34;;;;;;;5.80;5.20;;;22.10;99.90;;;;;;5073265;28;20483;-66
2022/04/27 14:44:01;;;;;;;5.32;4.75;;;22.10;99.90;;;;;;5097230;28;20215;-67
2022/04/27 14:46:26;;;;;;;5.72;5.20;;;22.10;99.90;;;;;;5079161;28;20191;-67
2022/04/27 14:48:54;;;;;;;5.50;5.00;;;22.20;99.90;;;;;;5075301;28;20172;-66
2022/04/27 14:51:20;;;;;;;6.50;4.80;;;22.30;99.90;;;;;;5095257;28;20168;-67
2022/04/27 14:53:48;;;;;;;5.03;4.53;;;22.40;99.90;;;;;;5085905;28;20176;-66
2022/04/27 14:56:16;;;;;;;5.35;4.72;;;22.60;99.90;;;;;;5074698;28;20184;-67
2022/04/27 14:58:41;;;;;;;4.90;4.40;;;22.70;99.90;;;;;;5091624;28;20278;-67
2022/04/27 15:01:10;;;;;;;4.40;4.00;;;22.80;99.90;;;;;;5071529;28;20196;-65
2022/04/27 15:03:36;;;;;;;4.97;4.35;;;23.00;99.90;;;;;;5060260;28;20204;-67
2022/04/27 15:06:04;;;;;;;5.07;4.15;;;23.10;99.90;;;;;;5073998;28;20235;-67
2022/04/27 15:08:35;;;;;;;6.18;4.10;;;23.30;99.90;;;;;;5058617;28;20208;-67
2022/04/27 15:11:01;;;;;;;4.50;4.10;;;23.40;99.90;;;;;;5059103;28;20192;-67
2022/04/27 15:13:27;;;;;;;4.78;4.25;;;23.40;99.90;;;;;;5092329;28;20241;-67
2022/04/27 15:15:52;;;;;;;5.25;4.25;;;23.50;99.90;;;;;;5104515;28;20204;-68
2022/04/27 15:18:20;;;;;;;5.15;4.63;;;23.50;99.90;;;;;;5083160;28;20240;-67
2022/04/27 15:23:35;;;;;;;5.88;4.70;;;23.50;99.90;;;;;;5082398;28;20253;-68
2022/04/27 15:26:01;;;;;;;5.15;3.95;;;23.50;99.90;;;;;;5059550;28;20190;-66
2022/04/27 15:28:26;;;;;;;5.90;4.38;;;23.40;99.90;;;;;;5078446;28;20184;-66
2022/04/27 15:30:52;;;;;;;5.20;3.95;;;23.40;99.90;;;;;;5073417;28;20192;-67
2022/04/27 15:33:22;;;;;;;6.95;5.18;;;23.40;99.90;;;;;;5084097;28;20185;-65
2022/04/27 15:35:48;;;;;;;4.75;4.32;;;23.40;99.90;;;;;;5088401;28;20188;-68
2022/04/27 15:38:16;;;;;;;5.22;4.13;;;23.30;99.90;;;;;;5091026;28;20175;-69
2022/04/27 15:40:46;;;;;;;4.63;3.92;;;23.30;99.90;;;;;;5090856;28;20195;-66
2022/04/27 15:43:14;;;;;;;4.65;3.97;;;23.20;99.90;;;;;;5087386;28;20227;-67
2022/04/27 15:45:45;;;;;;;4.70;4.18;;;23.30;99.90;;;;;;5086237;28;20193;-67
2022/04/27 15:48:15;;;;;;;6.05;4.53;;;23.30;99.90;;;;;;5054389;28;20178;-68
2022/04/27 15:50:41;;;;;;;5.07;4.03;;;23.30;99.90;;;;;;5063402;28;20170;-67
2022/04/27 15:53:09;;;;;;;6.10;4.65;;;23.20;99.90;;;;;;5097989;28;20191;-67
2022/04/27 15:55:40;;;;;;;4.53;4.05;;;23.10;99.90;;;;;;5094216;28;20192;-67
2022/04/27 15:58:06;;;;;;;4.38;3.97;;;23.10;99.90;;;;;;5074243;28;20192;-67
2022/04/27 16:00:33;;;;;;;4.38;3.95;;;23.10;99.90;;;;;;5099605;28;20175;-67
2022/04/27 16:02:58;;;;;;;5.90;5.32;;;23.00;99.90;;;;;;5100858;28;20234;-67
2022/04/27 16:05:26;;;;;;;4.95;4.38;;;22.90;99.90;;;;;;5073856;28;20233;-66
2022/04/27 16:07:52;;;;;;;4.50;4.10;;;22.70;99.90;;;;;;5071386;28;20173;-67
2022/04/27 16:10:17;;;;;;;5.57;4.50;;;22.60;99.90;;;;;;5073847;28;20172;-67
2022/04/27 16:12:44;;;;;;;7.65;5.47;;;22.40;99.90;;;;;;5086490;28;20177;-65
2022/04/27 16:15:10;;;;;;;6.07;5.00;;;22.30;99.90;;;;;;5072029;28;20234;-67
2022/04/27 16:17:36;;;;;;;5.57;4.28;;;22.20;99.90;;;;;;5081642;28;20172;-67
2022/04/27 16:20:03;;;;;;;6.43;4.40;;;22.00;99.90;;;;;;5073354;28;20176;-67
2022/04/27 16:25:20;;;;;;;5.25;4.40;;;21.70;99.90;;;;;;5067403;28;20218;-67
2022/04/27 16:27:45;;;;;;;7.65;4.50;;;21.60;99.90;;;;;;5077153;28;20295;-67
2022/04/27 16:30:11;;;;;;;4.57;4.13;;;21.50;99.90;;;;;;5055336;28;20204;-63
2022/04/27 16:32:37;;;;;;;5.50;4.38;;;21.40;99.90;;;;;;5072847;28;20180;-67
2022/04/27 16:35:03;;;;;;;4.80;4.30;;;21.30;99.90;;;;;;5077288;28;20179;-67
2022/04/27 16:37:34;;;;;;;4.88;4.22;;;21.20;99.90;;;;;;5074531;28;20211;-66
2022/04/27 16:39:59;;;;;;;5.20;4.40;;;21.10;99.90;;;;;;5063662;28;20181;-67
2022/04/27 16:42:25;;;;;;;5.35;4.50;;;21.10;99.90;;;;;;5072319;28;20298;-66
2022/04/27 16:44:53;;;;;;;4.90;4.40;;;21.00;99.90;;;;;;5078411;28;20253;-64
2022/04/27 16:47:22;;;;;;;5.13;4.55;;;20.90;99.90;;;;;;5072298;28;20278;-66
2022/04/27 16:49:50;;;;;;;4.97;4.40;;;20.80;99.90;;;;;;5085345;28;20200;-66
2022/04/27 16:52:16;;;;;;;4.78;4.15;;;20.80;99.90;;;;;;5083840;28;20229;-66
2022/04/27 16:54:42;;;;;;;5.35;4.85;;;20.70;99.90;;;;;;5070072;28;20185;-66
2022/04/27 16:57:07;;;;;;;6.57;5.15;;;20.60;99.90;;;;;;5073617;28;20211;-66
2022/04/27 16:59:35;;;;;;;5.35;4.50;;;20.50;99.90;;;;;;5074418;28;20228;-66
2022/04/27 17:02:01;;;;;;;4.80;4.10;;;20.40;99.90;;;;;;5070371;28;20182;-66
2022/04/27 17:04:27;;;;;;;5.18;4.15;;;20.30;99.90;;;;;;5068225;28;20204;-66
2022/04/27 17:06:52;;;;;;;6.35;4.82;;;20.30;99.90;;;;;;5055955;28;20173;-64
2022/04/27 17:09:20;;;;;;;4.70;4.07;;;20.20;99.90;;;;;;5074274;28;20169;-65
2022/04/27 17:11:46;;;;;;;6.97;4.32;;;20.20;99.90;;;;;;5082194;28;20267;-68
2022/04/27 17:14:12;;;;;;;4.85;3.85;;;20.10;99.90;;;;;;5078886;28;20260;-67
2022/04/27 17:16:38;;;;;;;5.45;4.90;;;20.00;99.90;;;;;;5078656;28;20180;-67
2022/04/27 17:19:06;;;;;;;5.60;4.50;;;19.90;99.90;;;;;;5064574;28;20250;-68
2022/04/27 17:21:32;;;;;;;5.55;4.43;;;19.90;99.90;;;;;;5081696;28;20173;-68
2022/04/27 17:23:58;;;;;;;5.00;4.18;;;19.80;99.90;;;;;;5086875;28;20252;-67
2022/04/27 17:29:12;;;;;;;4.80;4.28;;;19.80;99.90;;;;;;5073991;28;20482;-66
2022/04/27 17:31:38;;;;;;;4.82;4.32;;;19.70;99.90;;;;;;5087406;28;20185;-68
2022/04/27 17:34:03;;;;;;;6.80;4.78;;;19.70;99.90;;;;;;5069960;28;20186;-68
2022/04/27 17:36:32;;;;;;;4.82;4.20;;;19.60;99.90;;;;;;5068892;28;20243;-67
2022/04/27 17:39:00;;;;;;;4.93;4.28;;;19.50;99.90;;;;;;5060853;28;20263;-68
2022/04/27 17:41:26;;;;;;;5.80;4.18;;;19.40;99.90;;;;;;5076259;28;20294;-68
2022/04/27 17:43:52;;;;;;;5.20;4.63;;;19.40;99.90;;;;;;5080176;28;20197;-67
2022/04/27 17:46:17;;;;;;;5.20;4.30;;;19.30;99.90;;;;;;5057120;28;20176;-68
2022/04/27 17:48:44;;;;;;;5.43;4.20;;;19.20;99.90;;;;;;5088714;28;20173;-67
2022/04/27 17:51:11;;;;;;;5.55;4.25;;;19.20;99.90;;;;;;5091448;28;20175;-69
2022/04/27 17:53:37;;;;;;;5.13;3.75;;;19.10;99.90;;;;;;5092079;28;20231;-68
2022/04/27 17:56:04;;;;;;;4.50;3.85;;;19.10;99.90;;;;;;5085561;28;20204;-68
2022/04/27 17:58:30;;;;;;;4.30;3.90;;;19.00;99.90;;;;;;5075914;28;20208;-68
2022/04/27 18:00:58;;;;;;;4.93;3.85;;;19.00;99.90;;;;;;5076517;28;20160;-68
2022/04/27 18:03:24;;;;;;;4.30;3.90;;;18.90;99.90;;;;;;5075902;28;20609;-68
2022/04/27 18:05:50;;;;;;;4.68;4.18;;;18.90;99.90;;;;;;5064300;28;20292;-68
2022/04/27 18:08:15;;;;;;;4.60;4.10;;;18.80;99.90;;;;;;5059454;28;20178;-68
2022/04/27 18:10:44;;;;;;;5.72;4.53;;;18.80;99.90;;;;;;5059449;28;20249;-68
2022/04/27 18:13:09;;;;;;;5.20;4.45;;;18.70;99.90;;;;;;5073053;28;20183;-68
2022/04/27 18:15:47;;;;;;;5.68;4.55;;;18.70;99.90;;;;;;5067844;28;20185;-67
2022/04/27 18:18:25;;;;;;;5.50;4.40;;;18.60;99.90;;;;;;5076733;28;20179;-67
2022/04/27 18:20:51;;;;;;;5.25;4.25;;;18.60;99.90;;;;;;5078814;28;20181;-68
2022/04/27 18:25:50;;;;;;;5.82;4.72;;;18.40;99.90;;;;;;5055011;28;20225;-73
2022/04/27 18:28:17;;;;;;;8.18;4.20;;;18.40;99.90;;;;;;5038281;28;20275;-74
2022/04/27 18:30:46;;;;;;;4.82;4.18;;;18.30;99.90;;;;;;5024827;28;20197;-73
2022/04/27 18:33:15;;;;;;;5.10;4.18;;;18.20;99.90;;;;;;5038499;28;20268;-72